createdAt,value
2022-08-18T00:02:10.787Z,15.27
2022-08-18T00:04:48.995Z,15.48
2022-08-18T00:07:26.133Z,17.13
2022-08-18T00:10:00.916Z,15.68
2022-08-18T00:12:37.791Z,16.80
2022-08-18T00:15:15.454Z,19.05
2022-08-18T00:17:49.580Z,16.95
2022-08-18T00:20:25.307Z,17.10
2022-08-18T00:22:59.279Z,17.67
2022-08-18T00:25:33.256Z,16.77
2022-08-18T00:28:07.541Z,15.98
2022-08-18T00:30:42.974Z,16.00
2022-08-18T00:33:16.980Z,16.98
2022-08-18T00:35:51.025Z,14.98
2022-08-18T00:38:25.649Z,16.58
2022-08-18T00:40:59.773Z,16.70
2022-08-18T00:43:43.690Z,17.50
2022-08-18T00:46:21.221Z,17.92
2022-08-18T00:48:55.483Z,17.67
2022-08-18T00:51:40.158Z,15.00
2022-08-18T00:54:17.296Z,16.77
2022-08-18T00:56:56.379Z,15.82
2022-08-18T00:59:34.797Z,16.13
2022-08-18T01:02:16.045Z,17.45
2022-08-18T01:04:55.544Z,14.75
2022-08-18T01:07:35.588Z,17.45
2022-08-18T01:10:10.129Z,16.05
2022-08-18T01:12:46.643Z,17.98
2022-08-18T01:15:28.704Z,16.30
2022-08-18T01:18:25.732Z,15.82
2022-08-18T01:21:34.458Z,17.73
2022-08-18T01:24:13.108Z,16.75
2022-08-18T01:26:50.448Z,16.83
2022-08-18T01:29:24.410Z,16.75
2022-08-18T01:31:58.351Z,16.33
2022-08-18T01:34:32.295Z,16.75
2022-08-18T01:37:06.719Z,16.60
2022-08-18T01:41:17.648Z,16.17
2022-08-18T01:42:37.740Z,17.00
2022-08-18T01:45:12.964Z,16.67
2022-08-18T01:47:48.613Z,15.57
2022-08-18T01:50:22.928Z,16.88
2022-08-18T01:52:56.933Z,17.73
2022-08-18T01:55:32.571Z,15.93
2022-08-18T01:58:08.053Z,16.27
2022-08-18T02:00:43.137Z,17.75
2022-08-18T02:03:17.399Z,20.13
2022-08-18T02:05:53.404Z,18.73
2022-08-18T02:08:28.100Z,19.58
2022-08-18T02:11:04.700Z,18.45
2022-08-18T02:13:38.808Z,21.77
2022-08-18T02:16:13.073Z,20.77
2022-08-18T02:18:48.967Z,18.65
2022-08-18T02:21:23.438Z,18.38
2022-08-18T02:23:57.509Z,19.35
2022-08-18T02:26:32.908Z,20.48
2022-08-18T02:29:07.006Z,18.27
2022-08-18T02:31:41.061Z,18.48
2022-08-18T02:34:16.114Z,21.15
2022-08-18T02:36:50.246Z,17.27
2022-08-18T02:39:24.338Z,17.58
2022-08-18T02:41:59.845Z,17.92
2022-08-18T02:44:37.052Z,17.42
2022-08-18T02:47:11.090Z,19.08
2022-08-18T02:49:45.150Z,17.25
2022-08-18T02:52:19.257Z,17.65
2022-08-18T02:54:53.367Z,18.35
2022-08-18T02:57:29.697Z,17.45
2022-08-18T03:00:03.901Z,17.48
2022-08-18T03:02:38.590Z,17.02
2022-08-18T03:05:14.876Z,17.30
2022-08-18T03:07:50.603Z,17.63
2022-08-18T03:10:31.852Z,19.70
2022-08-18T03:13:09.047Z,20.73
2022-08-18T03:15:43.067Z,19.60
2022-08-18T03:18:17.181Z,18.90
2022-08-18T03:20:51.199Z,17.85
2022-08-18T03:23:29.996Z,18.98
2022-08-18T03:26:04.943Z,16.92
2022-08-18T03:28:41.251Z,15.88
2022-08-18T03:31:17.229Z,17.90
2022-08-18T03:33:52.079Z,17.13
2022-08-18T03:36:28.340Z,16.98
2022-08-18T03:39:05.706Z,17.08
2022-08-18T03:41:56.927Z,16.98
2022-08-18T03:44:36.691Z,17.45
2022-08-18T03:47:12.053Z,16.42
2022-08-18T03:49:46.300Z,18.48
2022-08-18T03:52:20.249Z,18.40
2022-08-18T03:54:54.889Z,18.30
2022-08-18T03:57:28.952Z,16.98
2022-08-18T04:00:09.810Z,18.00
2022-08-18T04:02:43.715Z,17.38
2022-08-18T04:05:17.949Z,17.30
2022-08-18T04:07:52.100Z,16.67
2022-08-18T04:10:26.727Z,17.25
2022-08-18T04:13:00.645Z,15.95
2022-08-18T04:15:35.998Z,16.55
2022-08-18T04:18:10.129Z,19.17
2022-08-18T04:20:54.708Z,18.05
2022-08-18T04:23:43.854Z,17.73
2022-08-18T04:26:19.268Z,20.00
2022-08-18T04:28:53.437Z,18.20
2022-08-18T04:31:29.749Z,16.85
2022-08-18T04:34:04.802Z,15.63
2022-08-18T04:36:39.671Z,16.15
2022-08-18T04:39:16.954Z,15.80
2022-08-18T04:41:51.054Z,16.90
2022-08-18T04:44:25.008Z,18.20
2022-08-18T04:47:03.133Z,18.05
2022-08-18T04:49:37.906Z,16.00
2022-08-18T04:52:40.281Z,15.68
2022-08-18T04:55:15.527Z,16.55
2022-08-18T04:57:49.537Z,17.42
2022-08-18T05:00:23.637Z,16.98
2022-08-18T05:03:00.478Z,16.55
2022-08-18T05:05:34.632Z,15.90
2022-08-18T05:08:08.557Z,16.38
2022-08-18T05:10:42.518Z,16.98
2022-08-18T05:13:17.889Z,16.92
2022-08-18T05:16:10.086Z,15.88
2022-08-18T05:18:46.960Z,16.92
2022-08-18T05:21:21.848Z,16.98
2022-08-18T05:23:59.067Z,17.52
2022-08-18T05:26:33.515Z,17.10
2022-08-18T05:29:18.689Z,16.45
2022-08-18T05:31:54.804Z,17.42
2022-08-18T05:34:30.246Z,18.05
2022-08-18T05:37:22.811Z,17.67
2022-08-18T05:40:00.334Z,16.77
2022-08-18T05:42:41.556Z,17.40
2022-08-18T05:45:18.618Z,16.83
2022-08-18T05:47:53.154Z,18.00
2022-08-18T05:50:30.455Z,16.90
2022-08-18T05:53:13.866Z,18.90
2022-08-18T05:56:17.887Z,15.98
2022-08-18T05:58:55.788Z,16.30
2022-08-18T06:01:34.889Z,15.98
2022-08-18T06:04:20.432Z,17.10
2022-08-18T06:06:58.702Z,19.70
2022-08-18T06:09:38.029Z,16.83
2022-08-18T06:12:20.967Z,16.30
2022-08-18T06:15:06.320Z,17.23
2022-08-18T06:18:06.290Z,16.40
2022-08-18T06:20:57.279Z,14.55
2022-08-18T06:23:42.311Z,18.90
2022-08-18T06:26:20.764Z,17.88
2022-08-18T06:29:07.662Z,17.30
2022-08-18T06:31:48.814Z,16.02
2022-08-18T06:34:35.002Z,19.15
2022-08-18T06:37:16.229Z,25.25
2022-08-18T06:39:52.955Z,25.23
2022-08-18T06:42:30.806Z,20.08
2022-08-18T06:45:13.120Z,20.58
2022-08-18T06:47:54.836Z,29.02
2022-08-18T06:50:34.228Z,36.03
2022-08-18T06:53:19.067Z,36.10
2022-08-18T06:56:25.839Z,33.78
2022-08-18T06:59:17.020Z,31.55
2022-08-18T07:01:57.837Z,43.90
2022-08-18T07:04:40.703Z,34.67
2022-08-18T07:07:17.763Z,32.38
2022-08-18T07:09:51.870Z,36.33
2022-08-18T07:12:32.687Z,29.30
2022-08-18T07:15:08.429Z,31.10
2022-08-18T07:17:51.537Z,22.00
2022-08-18T07:20:27.510Z,26.73
2022-08-18T07:23:07.906Z,35.70
2022-08-18T07:25:46.407Z,24.50
2022-08-18T07:28:31.554Z,24.05
2022-08-18T07:31:20.517Z,21.23
2022-08-18T07:33:59.247Z,22.63
2022-08-18T07:36:41.434Z,17.75
2022-08-18T07:39:22.309Z,18.20
2022-08-18T07:42:03.324Z,19.30
2022-08-18T07:44:46.216Z,15.65
2022-08-18T07:47:24.891Z,18.55
2022-08-18T07:50:23.002Z,19.75
2022-08-18T07:53:08.859Z,19.75
2022-08-18T07:55:47.314Z,17.13
2022-08-18T07:58:28.334Z,18.73
2022-08-18T08:01:07.093Z,17.30
2022-08-18T08:03:51.900Z,14.45
2022-08-18T08:06:33.600Z,17.55
2022-08-18T08:09:22.688Z,16.20
2022-08-18T08:11:59.780Z,16.15
2022-08-18T08:14:42.293Z,16.98
2022-08-18T08:17:25.565Z,16.33
2022-08-18T08:20:15.936Z,13.25
2022-08-18T08:23:09.507Z,13.63
2022-08-18T08:25:52.547Z,17.00
2022-08-18T08:28:38.515Z,13.90
2022-08-18T08:31:36.256Z,12.95
2022-08-18T08:34:18.272Z,13.50
2022-08-18T08:36:59.378Z,16.13
2022-08-18T08:39:40.431Z,13.32
2022-08-18T08:42:30.697Z,12.77
2022-08-18T08:45:11.320Z,12.30
2022-08-18T08:47:53.460Z,12.40
2022-08-18T08:50:32.389Z,14.80
2022-08-18T08:53:13.903Z,14.77
2022-08-18T08:55:51.516Z,12.80
2022-08-18T08:58:30.533Z,12.20
2022-08-18T09:01:05.949Z,11.43
2022-08-18T09:03:49.516Z,11.35
2022-08-18T09:06:35.970Z,12.10
2022-08-18T09:09:25.271Z,11.63
2022-08-18T09:12:27.047Z,10.70
2022-08-18T09:15:26.669Z,10.80
2022-08-18T09:18:27.761Z,10.85
2022-08-18T09:21:16.145Z,11.70
2022-08-18T09:23:56.200Z,12.13
2022-08-18T09:26:43.822Z,11.68
2022-08-18T09:29:23.676Z,10.52
2022-08-18T09:32:35.785Z,11.75
2022-08-18T09:35:27.639Z,11.80
2022-08-18T09:38:27.362Z,11.50
2022-08-18T09:41:31.366Z,11.63
2022-08-18T09:44:21.671Z,14.10
2022-08-18T09:47:01.961Z,13.43
2022-08-18T09:49:56.991Z,12.40
2022-08-18T09:53:02.449Z,10.65
2022-08-18T09:56:01.339Z,11.88
2022-08-18T09:58:56.704Z,9.95
2022-08-18T10:01:40.028Z,10.57
2022-08-18T10:04:30.002Z,12.00
2022-08-18T10:07:34.016Z,9.82
2022-08-18T10:11:00.548Z,10.13
2022-08-18T10:13:25.670Z,9.00
2022-08-18T10:16:12.085Z,9.60
2022-08-18T10:18:56.033Z,11.88
2022-08-18T10:21:53.866Z,9.60
2022-08-18T10:24:35.854Z,10.77
2022-08-18T10:27:33.529Z,14.55
2022-08-18T10:31:05.958Z,8.98
2022-08-18T10:34:16.337Z,9.18
2022-08-18T10:36:54.608Z,10.82
2022-08-18T10:39:47.615Z,15.98
2022-08-18T10:42:31.156Z,13.60
2022-08-18T10:45:24.604Z,16.38
2022-08-18T10:51:21.556Z,9.43
2022-08-18T10:54:04.535Z,17.00
2022-08-18T10:56:45.673Z,14.77
2022-08-18T10:59:29.926Z,8.70
2022-08-18T11:02:18.185Z,8.77
2022-08-18T11:07:52.122Z,9.88
2022-08-18T11:10:58.212Z,9.05
2022-08-18T11:13:39.568Z,9.27
2022-08-18T11:16:26.635Z,8.90
2022-08-18T11:19:10.799Z,9.07
2022-08-18T11:21:51.358Z,10.48
2022-08-18T11:24:28.932Z,12.27
2022-08-18T11:30:03.119Z,7.75
2022-08-18T11:32:51.401Z,9.18
2022-08-18T11:35:32.124Z,10.23
2022-08-18T11:38:13.713Z,9.60
2022-08-18T11:41:13.565Z,9.13
2022-08-18T11:43:50.714Z,10.23
2022-08-18T11:46:32.006Z,8.32
2022-08-18T11:52:26.062Z,6.78
2022-08-18T11:55:14.541Z,7.35
2022-08-18T11:57:56.203Z,8.93
2022-08-18T12:00:44.291Z,7.85
2022-08-18T12:03:28.470Z,9.57
2022-08-18T12:09:00.617Z,7.53
2022-08-18T12:11:41.348Z,8.25
2022-08-18T12:17:16.069Z,9.20
2022-08-18T12:19:50.201Z,7.63
2022-08-18T12:22:28.392Z,9.25
2022-08-18T12:25:04.414Z,6.68
2022-08-18T12:27:46.460Z,7.70
2022-08-18T12:30:21.820Z,6.47
2022-08-18T12:33:04.851Z,7.65
2022-08-18T12:38:36.477Z,9.98
2022-08-18T12:41:18.560Z,7.65
2022-08-18T12:46:51.798Z,8.65
2022-08-18T12:49:27.492Z,7.63
2022-08-18T12:52:03.827Z,7.50
2022-08-18T12:54:38.233Z,8.15
2022-08-18T13:00:28.816Z,8.07
2022-08-18T13:03:03.297Z,6.82
2022-08-18T13:05:38.605Z,8.10
2022-08-18T13:08:30.558Z,6.13
2022-08-18T13:11:15.153Z,6.22
2022-08-18T13:13:57.186Z,6.53
2022-08-18T13:16:53.469Z,5.97
2022-08-18T13:19:33.200Z,8.13
2022-08-18T13:22:07.361Z,6.47
2022-08-18T13:24:44.545Z,6.93
2022-08-18T13:27:23.243Z,6.57
2022-08-18T13:29:58.855Z,6.78
2022-08-18T13:32:39.500Z,9.15
2022-08-18T13:35:30.185Z,5.65
2022-08-18T13:38:18.832Z,7.35
2022-08-18T13:40:56.962Z,6.10
2022-08-18T13:43:35.658Z,5.95
2022-08-18T13:46:12.785Z,7.55
2022-08-18T13:48:47.488Z,6.18
2022-08-18T13:51:25.869Z,7.13
2022-08-18T13:54:26.520Z,5.60
2022-08-18T13:56:53.936Z,5.25
2022-08-18T13:59:31.807Z,5.47
2022-08-18T14:02:10.140Z,5.55
2022-08-18T14:04:44.406Z,5.43
2022-08-18T14:07:27.287Z,6.47
2022-08-18T14:10:03.607Z,6.30
2022-08-18T14:12:39.959Z,5.78
2022-08-18T14:15:16.170Z,5.30
2022-08-18T14:17:52.224Z,5.82
2022-08-18T14:20:48.416Z,6.05
2022-08-18T14:23:39.739Z,4.68
2022-08-18T14:26:43.127Z,5.05
2022-08-18T14:29:18.115Z,6.25
2022-08-18T14:32:18.067Z,6.13
2022-08-18T14:35:00.393Z,5.80
2022-08-18T14:37:35.172Z,8.00
2022-08-18T14:40:12.386Z,7.72
2022-08-18T14:42:54.489Z,5.20
2022-08-18T14:45:34.245Z,8.32
2022-08-18T14:48:11.169Z,5.45
2022-08-18T14:50:50.397Z,6.70
2022-08-18T14:53:26.831Z,10.90
2022-08-18T14:56:01.408Z,5.70
2022-08-18T14:58:37.380Z,9.55
2022-08-18T15:01:13.500Z,7.35
2022-08-18T15:03:50.308Z,11.60
2022-08-18T15:06:27.296Z,6.63
2022-08-18T15:09:01.525Z,9.88
2022-08-18T15:11:36.478Z,9.90
2022-08-18T15:14:12.439Z,7.47
2022-08-18T15:16:47.505Z,8.98
2022-08-18T15:19:59.945Z,8.40
2022-08-18T15:22:35.886Z,6.22
2022-08-18T15:25:43.100Z,7.60
2022-08-18T15:28:19.895Z,8.73
2022-08-18T15:33:50.153Z,7.43
2022-08-18T15:36:29.292Z,7.85
2022-08-18T15:39:06.241Z,7.07
2022-08-18T15:41:48.872Z,8.70
2022-08-18T15:44:23.878Z,12.77
2022-08-18T15:46:57.939Z,9.55
2022-08-18T15:49:33.856Z,7.35
2022-08-18T15:52:11.949Z,7.78
2022-08-18T15:54:50.425Z,9.52
2022-08-18T15:57:39.878Z,13.05
2022-08-18T16:00:17.793Z,8.00
2022-08-18T16:02:53.639Z,7.07
2022-08-18T16:05:29.696Z,7.10
2022-08-18T16:08:06.614Z,9.38
2022-08-18T16:10:42.655Z,8.77
2022-08-18T16:13:16.737Z,11.73
2022-08-18T16:15:50.878Z,8.32
2022-08-18T16:18:25.156Z,7.25
2022-08-18T16:21:05.823Z,8.48
2022-08-18T16:23:41.859Z,7.25
2022-08-18T16:29:01.309Z,12.40
2022-08-18T16:31:35.950Z,8.48
2022-08-18T16:34:10.760Z,8.75
2022-08-18T16:36:44.941Z,8.07
2022-08-18T16:39:19.750Z,6.95
2022-08-18T16:41:55.801Z,7.78
2022-08-18T16:44:32.974Z,7.43
2022-08-18T16:47:07.882Z,10.48
2022-08-18T16:49:41.950Z,9.68
2022-08-18T16:52:16.143Z,9.50
2022-08-18T16:54:57.474Z,7.00
2022-08-18T16:57:53.405Z,9.18
2022-08-18T17:00:54.462Z,8.35
2022-08-18T17:04:01.517Z,7.65
2022-08-18T17:06:36.373Z,6.75
2022-08-18T17:09:22.609Z,7.50
2022-08-18T17:11:56.768Z,10.80
2022-08-18T17:14:33.179Z,8.13
2022-08-18T17:17:07.831Z,7.80
2022-08-18T17:19:41.803Z,7.32
2022-08-18T17:22:17.406Z,10.40
2022-08-18T17:24:52.711Z,8.57
2022-08-18T17:27:37.657Z,6.85
2022-08-18T17:30:17.349Z,7.85
2022-08-18T17:32:55.594Z,7.93
2022-08-18T17:35:37.519Z,8.85
2022-08-18T17:38:18.617Z,8.13
2022-08-18T17:40:55.840Z,9.82
2022-08-18T17:43:34.259Z,7.72
2022-08-18T17:46:13.607Z,10.93
2022-08-18T17:48:53.506Z,7.60
2022-08-18T17:51:34.924Z,7.88
2022-08-18T17:54:17.518Z,8.90
2022-08-18T17:56:55.021Z,9.55
2022-08-18T17:59:45.624Z,8.02
2022-08-18T18:02:30.622Z,11.25
2022-08-18T18:05:09.426Z,8.55
2022-08-18T18:07:58.175Z,10.88
2022-08-18T18:11:02.321Z,10.38
2022-08-18T18:16:25.903Z,8.57
2022-08-18T18:19:04.591Z,7.75
2022-08-18T18:22:00.872Z,9.40
2022-08-18T18:24:34.639Z,9.77
2022-08-18T18:27:27.091Z,10.75
2022-08-18T18:30:03.552Z,7.95
2022-08-18T18:32:59.129Z,8.07
2022-08-18T18:35:54.225Z,9.43
2022-08-18T18:38:31.268Z,6.80
2022-08-18T18:41:07.667Z,8.50
2022-08-18T18:43:43.792Z,7.85
2022-08-18T18:46:30.061Z,8.57
2022-08-18T18:49:18.307Z,9.98
2022-08-18T18:52:06.651Z,10.18
2022-08-18T18:55:02.369Z,10.52
2022-08-18T18:57:43.097Z,11.90
2022-08-18T19:00:22.098Z,12.82
2022-08-18T19:03:04.705Z,11.93
2022-08-18T19:05:46.047Z,12.10
2022-08-18T19:08:33.317Z,11.68
2022-08-18T19:11:17.742Z,10.23
2022-08-18T19:13:56.855Z,10.40
2022-08-18T19:16:35.981Z,15.32
2022-08-18T19:19:38.335Z,16.73
2022-08-18T19:22:18.765Z,12.07
2022-08-18T19:25:09.801Z,11.45
2022-08-18T19:27:49.793Z,11.32
2022-08-18T19:30:24.628Z,12.95
2022-08-18T19:33:01.213Z,12.38
2022-08-18T19:35:41.827Z,16.65
2022-08-18T19:38:23.109Z,16.17
2022-08-18T19:41:05.764Z,14.02
2022-08-18T19:43:47.567Z,26.35
2022-08-18T19:46:37.148Z,13.75
2022-08-18T19:49:20.849Z,15.52
2022-08-18T19:52:02.552Z,13.82
2022-08-18T19:54:50.954Z,17.27
2022-08-18T19:57:41.778Z,12.27
2022-08-18T20:00:24.736Z,14.95
2022-08-18T20:03:18.805Z,23.88
2022-08-18T20:06:34.443Z,14.63
2022-08-18T20:09:29.696Z,18.45
2022-08-18T20:12:18.081Z,15.60
2022-08-18T20:15:03.361Z,15.45
2022-08-18T20:18:02.919Z,14.85
2022-08-18T20:20:39.360Z,22.80
2022-08-18T20:23:34.646Z,15.60
2022-08-18T20:26:42.690Z,21.02
2022-08-18T20:29:19.583Z,13.10
2022-08-18T20:32:03.079Z,15.30
2022-08-18T20:34:37.368Z,15.63
2022-08-18T20:37:24.449Z,21.73
2022-08-18T20:39:58.884Z,14.15
2022-08-18T20:42:57.470Z,16.52
2022-08-18T20:45:46.220Z,12.85
2022-08-18T20:48:35.796Z,16.83
2022-08-18T20:51:12.784Z,12.95
2022-08-18T20:54:13.342Z,14.52
2022-08-18T20:56:53.576Z,15.35
2022-08-18T20:59:40.940Z,16.52
2022-08-18T21:02:29.281Z,14.05
2022-08-18T21:05:05.623Z,12.18
2022-08-18T21:08:06.322Z,16.67
2022-08-18T21:10:49.992Z,17.58
2022-08-18T21:13:36.282Z,12.65
2022-08-18T21:16:11.708Z,17.45
2022-08-18T21:18:52.416Z,17.50
2022-08-18T21:21:31.124Z,13.50
2022-08-18T21:24:06.406Z,19.75
2022-08-18T21:26:41.123Z,16.90
2022-08-18T21:29:16.249Z,15.77
2022-08-18T21:31:51.002Z,15.23
2022-08-18T21:34:33.800Z,16.05
2022-08-18T21:37:11.444Z,16.08
2022-08-18T21:39:54.108Z,14.18
2022-08-18T21:42:31.977Z,15.50
2022-08-18T21:45:06.785Z,17.55
2022-08-18T21:47:49.497Z,15.00
2022-08-18T21:50:26.539Z,13.52
2022-08-18T21:53:05.471Z,14.32
2022-08-18T21:55:43.166Z,14.57
2022-08-18T21:58:33.751Z,13.10
2022-08-18T22:01:14.952Z,12.07
2022-08-18T22:03:59.681Z,16.20
2022-08-18T22:06:40.475Z,15.77
2022-08-18T22:09:36.104Z,14.75
2022-08-18T22:12:43.830Z,17.60
2022-08-18T22:15:21.097Z,13.93
2022-08-18T22:17:58.461Z,17.88
2022-08-18T22:20:44.522Z,13.48
2022-08-18T22:23:56.076Z,13.27
2022-08-18T22:26:33.317Z,13.65
2022-08-18T22:29:19.934Z,13.75
2022-08-18T22:31:55.971Z,12.85
2022-08-18T22:34:32.204Z,13.30
2022-08-18T22:37:10.859Z,14.38
2022-08-18T22:39:48.238Z,13.70
2022-08-18T22:42:25.868Z,12.73
2022-08-18T22:45:04.479Z,13.52
2022-08-18T22:47:42.903Z,13.15
2022-08-18T22:50:19.597Z,13.65
2022-08-18T22:52:54.016Z,13.63
2022-08-18T22:55:28.386Z,12.82
2022-08-18T22:58:04.263Z,12.60
2022-08-18T23:00:41.342Z,12.60
2022-08-18T23:03:17.056Z,12.95
2022-08-18T23:05:51.201Z,12.18
2022-08-18T23:08:39.327Z,13.70
2022-08-18T23:11:19.188Z,12.48
2022-08-18T23:13:54.696Z,13.18
2022-08-18T23:16:31.168Z,13.05
2022-08-18T23:19:06.097Z,12.38
2022-08-18T23:21:40.507Z,13.10
2022-08-18T23:24:16.364Z,13.25
2022-08-18T23:26:50.772Z,12.20
2022-08-18T23:29:26.181Z,14.27
2022-08-18T23:32:00.319Z,12.15
2022-08-18T23:34:36.357Z,13.80
2022-08-18T23:37:11.129Z,14.10
2022-08-18T23:39:48.317Z,12.98
2022-08-18T23:42:23.279Z,12.63
2022-08-18T23:45:03.405Z,13.20
2022-08-18T23:47:37.613Z,12.27
2022-08-18T23:50:12.727Z,18.38
2022-08-18T23:52:48.174Z,13.20
2022-08-18T23:55:23.848Z,12.65
2022-08-18T23:57:58.209Z,13.10
